首页
METAR-TAF:

METAR-TAF

机场 :

尼亞加拉瀑布城, 紐約州, 美国

纬度: 43-06-26N, 经度: 078-56-43W, 海拔: 180米

当前天气观测

该预报发布于31分钟前的15:53 UTC
风速4节,风向东转东南
温度 -2°C
湿度 69%
气压 1026 hPa
能見度: 16.1公里
多云层高于2800英尺
阴天层高于3300英尺

METAR: KIAG 171553Z 11004KT 10SM BKN028 OVC033 M02/M07 A3031 RMK AO2 SLP282 T10171072

时间: 11:24 (16:24 UTC)

预报

该预报发布于1小时和13分钟前的15:11 UTC
预报有效从17日的 15点(UTC)到 18日的 12点(UTC)
风速7节,风向东北
能見度: 10公里
多云层高于2500英尺
从 17日的 1800点(UTC)
风速5节,风向
能見度: 10公里
多云层高于25000英尺
从 18日的 0700点(UTC)
风速11节,风向东南,有时为20节阵风
能見度: 10公里
阴天层高于5000英尺
从 18日的 0800点(UTC)
风速13节,风向东南,有时为23节阵风
能見度: 3.2公里
阴天层高于3000英尺
小雪
从 18日的 1000点(UTC)
风速16节,风向南转南东,有时为26节阵风
能見度: 9.7公里
阴天层高于1200英尺
小雨

TAF: KIAG 171511Z 1715/1812 04007KT P6SM BKN025 FM171800 08005KT P6SM BKN250 FM180700 13011G20KT P6SM OVC050 FM180800 14013G23KT 2SM -SN OVC030 FM181000 16016G26KT 6SM -RA OVC012

超过4000个机场的气象观测和天气预报(METAR&TAF报告)。

可查询的气象台以黄色和红色小点在地图上表示。

将鼠标移到小点上方,可查看气象台名称。

然后点击查看天气观测和预报。

如需切换地图:点击带黑十字的绿色按钮放大地图;点击带横线的绿色按钮缩小地图;或者点击绿色箭头查看邻近地区的地图。


METAR-TAF: